Time;durP1;ratioP1;P1;durP2;ratioP2;P2;SDS_P1;SDS_P2;PMS_P1;PMS_P2;Temp;Humidity;BMP_temperature;BMP_pressure;BME280_temperature;BME280_humidity;BME280_pressure;Samples;Min_cycle;Max_cycle;Signal;HPM_P1;HPM_P2
2021/08/07 00:00:25;;;;;;;2.45;1.30;;;16.10;99.90;;;;;;4226788;27;20031;-62
2021/08/07 00:02:26;;;;;;;2.42;1.27;;;16.10;99.90;;;;;;4239289;27;20043;-62
2021/08/07 00:04:27;;;;;;;1.30;1.17;;;16.00;99.90;;;;;;4234659;27;20077;-60
2021/08/07 00:06:28;;;;;;;1.23;0.93;;;16.00;99.90;;;;;;4222950;28;20421;-62
2021/08/07 00:08:29;;;;;;;3.30;1.35;;;16.00;99.90;;;;;;4222937;28;20040;-61
2021/08/07 00:10:31;;;;;;;6.47;1.45;;;15.90;99.90;;;;;;4225398;27;20043;-61
2021/08/07 00:12:32;;;;;;;6.88;1.10;;;15.90;99.90;;;;;;4239128;27;20092;-61
2021/08/07 00:14:33;;;;;;;2.13;1.20;;;15.80;99.90;;;;;;4237937;27;20104;-60
2021/08/07 00:16:34;;;;;;;1.77;1.20;;;15.80;99.90;;;;;;4239313;27;20095;-60
2021/08/07 00:18:35;;;;;;;4.68;1.15;;;15.80;99.90;;;;;;4239995;27;20040;-60
2021/08/07 00:20:36;;;;;;;4.35;1.15;;;15.80;99.90;;;;;;4230238;27;20089;-61
2021/08/07 00:22:38;;;;;;;1.17;1.05;;;15.80;99.90;;;;;;4223242;28;20031;-61
2021/08/07 00:24:39;;;;;;;5.20;1.48;;;15.70;99.90;;;;;;4221892;28;20040;-61
2021/08/07 00:26:40;;;;;;;1.95;1.38;;;15.70;99.90;;;;;;4221604;28;20582;-61
2021/08/07 00:28:41;;;;;;;1.70;1.20;;;15.70;99.90;;;;;;4221866;28;20611;-61
2021/08/07 00:30:42;;;;;;;2.25;1.50;;;15.70;99.90;;;;;;4222426;28;20051;-61
2021/08/07 00:32:44;;;;;;;3.13;1.27;;;15.70;99.90;;;;;;4229873;27;20104;-60
2021/08/07 00:34:45;;;;;;;1.42;0.93;;;15.60;99.90;;;;;;4239215;27;20560;-60
2021/08/07 00:36:46;;;;;;;1.63;1.08;;;15.60;99.90;;;;;;4238843;27;20054;-60
2021/08/07 00:38:47;;;;;;;1.52;1.10;;;15.70;99.90;;;;;;4239059;27;20103;-60
2021/08/07 00:40:49;;;;;;;1.63;1.00;;;15.60;99.90;;;;;;4227280;27;20035;-61
2021/08/07 00:42:50;;;;;;;3.53;1.17;;;15.60;99.90;;;;;;4222359;28;20043;-61
2021/08/07 00:44:51;;;;;;;1.35;0.93;;;15.60;99.90;;;;;;4222339;28;20024;-60
2021/08/07 00:46:52;;;;;;;1.85;1.42;;;15.60;99.90;;;;;;4225091;27;20171;-61
2021/08/07 00:48:54;;;;;;;3.08;1.08;;;15.60;99.90;;;;;;4239286;27;20035;-62
2021/08/07 00:50:55;;;;;;;0.98;0.90;;;15.60;99.90;;;;;;4238947;28;20031;-61
2021/08/07 00:52:56;;;;;;;1.13;0.90;;;15.60;99.90;;;;;;4238969;27;20445;-61
2021/08/07 00:54:59;;;;;;;1.15;1.05;;;15.60;99.90;;;;;;4238866;27;20038;-61
2021/08/07 00:57:00;;;;;;;1.70;0.98;;;15.60;99.90;;;;;;4235716;28;20084;-62
2021/08/07 00:59:01;;;;;;;1.42;1.00;;;15.60;99.90;;;;;;4221344;28;20077;-61
2021/08/07 01:01:11;;;;;;;2.05;1.10;;;15.60;99.90;;;;;;4222178;28;20028;-61
2021/08/07 01:03:33;;;;;;;2.17;1.10;;;15.50;99.90;;;;;;4221834;28;20019;-61
2021/08/07 01:05:37;;;;;;;1.27;1.08;;;15.50;99.90;;;;;;4222447;28;20050;-61
2021/08/07 01:08:05;;;;;;;1.17;0.90;;;15.50;99.90;;;;;;4222173;28;20032;-61
2021/08/07 01:10:12;;;;;;;1.38;0.98;;;15.40;99.90;;;;;;4222977;28;20024;-61
2021/08/07 01:12:23;;;;;;;1.42;0.77;;;15.40;99.90;;;;;;4221350;28;20903;-61
2021/08/07 01:14:34;;;;;;;2.13;1.05;;;15.40;99.90;;;;;;4222778;28;20024;-61
2021/08/07 01:16:41;;;;;;;1.08;1.00;;;15.40;99.90;;;;;;4221654;28;20035;-61
2021/08/07 01:18:46;;;;;;;1.35;1.00;;;15.40;99.90;;;;;;4225687;28;20087;-61
2021/08/07 01:20:51;;;;;;;1.83;0.90;;;15.40;99.90;;;;;;4237891;27;20047;-61
2021/08/07 01:23:02;;;;;;;1.55;0.90;;;15.40;99.90;;;;;;4239255;28;20035;-61
2021/08/07 01:25:07;;;;;;;1.52;1.10;;;15.40;99.90;;;;;;4238959;28;20072;-61
2021/08/07 01:27:23;;;;;;;1.63;1.10;;;15.40;99.90;;;;;;4239660;27;20039;-61
2021/08/07 01:29:26;;;;;;;1.17;1.00;;;15.30;99.90;;;;;;4237746;27;20487;-60
2021/08/07 01:31:28;;;;;;;1.17;0.95;;;15.30;99.90;;;;;;4238680;27;20552;-61
2021/08/07 01:33:30;;;;;;;7.80;1.40;;;15.30;99.90;;;;;;4238335;28;20027;-61
2021/08/07 01:35:31;;;;;;;0.80;0.80;;;15.30;99.90;;;;;;4237674;28;20031;-62
2021/08/07 01:37:33;;;;;;;1.15;1.05;;;15.30;99.90;;;;;;4239326;27;20360;-62
2021/08/07 01:39:34;;;;;;;1.73;0.90;;;15.20;99.90;;;;;;4241645;27;20035;-61
2021/08/07 01:41:36;;;;;;;1.13;1.02;;;15.20;99.90;;;;;;4241457;27;20043;-61
2021/08/07 01:43:37;;;;;;;3.83;1.00;;;15.20;99.90;;;;;;4242176;27;20097;-61
2021/08/07 01:45:38;;;;;;;4.97;1.10;;;15.20;99.90;;;;;;4241852;27;20429;-61
2021/08/07 01:47:48;;;;;;;0.93;0.90;;;15.20;99.90;;;;;;4240989;27;20050;-61
2021/08/07 01:50:08;;;;;;;2.15;0.98;;;15.20;99.90;;;;;;4242237;27;20049;-61
2021/08/07 01:52:31;;;;;;;1.08;0.90;;;15.20;99.90;;;;;;4207975;28;20085;-61
2021/08/07 01:54:36;;;;;;;0.80;0.80;;;15.20;99.90;;;;;;4207367;28;20102;-61
2021/08/07 01:56:44;;;;;;;0.52;0.52;;;15.10;99.90;;;;;;4207598;28;20032;-61
2021/08/07 01:58:48;;;;;;;1.23;1.00;;;15.10;99.90;;;;;;4216693;28;20540;-61
2021/08/07 02:00:50;;;;;;;1.93;0.70;;;15.00;99.90;;;;;;4224896;28;20047;-61
2021/08/07 02:02:52;;;;;;;1.98;0.82;;;15.10;99.90;;;;;;4224895;28;20028;-61
2021/08/07 02:04:54;;;;;;;2.25;0.95;;;15.10;99.90;;;;;;4225088;28;20092;-61
2021/08/07 02:06:59;;;;;;;1.15;1.05;;;15.00;99.90;;;;;;4225063;28;20029;-61
2021/08/07 02:09:01;;;;;;;2.87;1.27;;;15.10;99.90;;;;;;4230934;27;20466;-61
2021/08/07 02:11:04;;;;;;;1.40;0.77;;;15.00;99.90;;;;;;4242320;27;20035;-61
2021/08/07 02:13:05;;;;;;;3.40;0.97;;;15.10;99.90;;;;;;4241341;27;20035;-61
2021/08/07 02:15:07;;;;;;;1.27;1.00;;;15.10;99.90;;;;;;4241361;27;20437;-60
2021/08/07 02:17:09;;;;;;;3.27;1.20;;;15.10;99.90;;;;;;4241019;27;20027;-61
2021/08/07 02:19:12;;;;;;;3.28;0.95;;;15.10;99.90;;;;;;4241574;27;20034;-60
2021/08/07 02:21:16;;;;;;;2.07;1.10;;;15.00;99.90;;;;;;4240589;27;20140;-61
2021/08/07 02:23:18;;;;;;;4.03;1.20;;;15.00;99.90;;;;;;4241385;27;20039;-61
2021/08/07 02:25:20;;;;;;;1.08;0.80;;;15.00;99.90;;;;;;4241693;27;20034;-61
2021/08/07 02:27:22;;;;;;;1.13;1.03;;;15.00;99.90;;;;;;4233149;27;20047;-61
2021/08/07 02:29:24;;;;;;;1.30;0.87;;;14.90;99.90;;;;;;4224118;28;20028;-61
2021/08/07 02:31:26;;;;;;;1.20;0.90;;;14.90;99.90;;;;;;4224073;28;20043;-61
2021/08/07 02:33:28;;;;;;;1.73;1.00;;;14.90;99.90;;;;;;4223870;28;20433;-61
2021/08/07 02:35:30;;;;;;;4.67;0.83;;;14.90;99.90;;;;;;4224219;28;20088;-61
2021/08/07 02:37:32;;;;;;;1.40;1.08;;;14.90;99.90;;;;;;4222519;27;20036;-60
2021/08/07 02:39:33;;;;;;;3.63;1.13;;;14.90;99.90;;;;;;4223905;28;20024;-60
2021/08/07 02:41:35;;;;;;;4.40;1.02;;;14.80;99.90;;;;;;4224187;28;20112;-60
2021/08/07 02:43:36;;;;;;;3.13;1.00;;;14.80;99.90;;;;;;4223738;28;20032;-60
2021/08/07 02:45:38;;;;;;;1.70;1.20;;;14.80;99.90;;;;;;4233949;27;20505;-61
2021/08/07 02:47:41;;;;;;;2.17;1.27;;;14.70;99.90;;;;;;4240825;27;20461;-60
2021/08/07 02:49:42;;;;;;;2.95;1.15;;;14.70;99.90;;;;;;4241512;27;20540;-60
2021/08/07 02:51:44;;;;;;;5.97;1.00;;;14.70;99.90;;;;;;4240548;27;20448;-60
2021/08/07 02:53:46;;;;;;;1.20;0.97;;;14.60;99.90;;;;;;4240984;27;20103;-61
2021/08/07 02:55:47;;;;;;;1.60;1.10;;;14.60;99.90;;;;;;4240436;27;20044;-60
2021/08/07 02:57:51;;;;;;;1.60;1.00;;;14.60;99.90;;;;;;4240777;27;20734;-61
2021/08/07 02:59:53;;;;;;;0.80;0.80;;;14.60;99.90;;;;;;4225070;27;20035;-60
2021/08/07 03:01:54;;;;;;;1.43;1.10;;;14.60;99.90;;;;;;4223697;28;20096;-60
2021/08/07 03:03:55;;;;;;;2.20;1.13;;;14.60;99.90;;;;;;4223807;28;20027;-60
2021/08/07 03:05:56;;;;;;;3.60;1.00;;;14.60;99.90;;;;;;4223867;28;20088;-61
2021/08/07 03:07:57;;;;;;;1.17;1.00;;;14.60;99.90;;;;;;4223717;28;20449;-60
2021/08/07 03:09:58;;;;;;;1.07;0.80;;;14.60;99.90;;;;;;4223539;28;20089;-61
2021/08/07 03:11:59;;;;;;;1.17;0.97;;;14.70;99.90;;;;;;4223181;28;20445;-61
2021/08/07 03:14:00;;;;;;;1.40;0.93;;;14.70;99.90;;;;;;4223242;28;20077;-60
2021/08/07 03:16:02;;;;;;;1.53;1.43;;;14.70;99.90;;;;;;4224053;28;20069;-60
2021/08/07 03:18:03;;;;;;;6.10;1.00;;;14.70;99.90;;;;;;4223335;28;20372;-61
2021/08/07 03:20:05;;;;;;;2.17;0.80;;;14.80;99.90;;;;;;4224378;28;20028;-61
2021/08/07 03:22:07;;;;;;;1.42;0.90;;;14.80;99.90;;;;;;4221961;28;20559;-61
2021/08/07 03:24:08;;;;;;;1.53;1.43;;;15.00;99.90;;;;;;4224046;28;20065;-61
2021/08/07 03:26:10;;;;;;;1.48;1.20;;;15.20;99.90;;;;;;4222976;28;20076;-60
2021/08/07 03:28:12;;;;;;;2.95;1.17;;;15.30;99.90;;;;;;4223458;28;20051;-61
2021/08/07 03:30:13;;;;;;;3.13;1.48;;;15.50;99.90;;;;;;4222660;28;20081;-61
2021/08/07 03:32:14;;;;;;;1.63;1.30;;;15.70;99.90;;;;;;4223331;28;20043;-61
2021/08/07 03:34:15;;;;;;;1.60;1.50;;;15.80;99.90;;;;;;4223403;28;20085;-61
2021/08/07 03:36:16;;;;;;;1.67;1.10;;;15.80;99.90;;;;;;4223580;28;20047;-61
2021/08/07 03:38:18;;;;;;;2.30;0.93;;;16.00;99.90;;;;;;4224486;27;20491;-61
2021/08/07 03:40:19;;;;;;;2.92;1.52;;;16.30;99.90;;;;;;4222795;28;20104;-61
2021/08/07 03:42:20;;;;;;;2.10;1.90;;;16.60;99.90;;;;;;4223296;28;20084;-61
2021/08/07 03:44:22;;;;;;;2.78;2.33;;;16.90;99.90;;;;;;4222652;28;20031;-61
2021/08/07 03:46:23;;;;;;;3.03;2.22;;;17.30;99.90;;;;;;4223269;28;20422;-61
2021/08/07 03:48:24;;;;;;;26.15;16.52;;;17.50;99.90;;;;;;4225236;27;20104;-61
2021/08/07 03:50:25;;;;;;;14.43;5.50;;;17.70;99.90;;;;;;4240177;27;20482;-61
2021/08/07 03:52:27;;;;;;;2.90;1.80;;;17.90;99.90;;;;;;4239134;27;20551;-62
2021/08/07 03:54:28;;;;;;;4.70;1.52;;;18.20;99.90;;;;;;4240428;27;20048;-61
2021/08/07 03:56:29;;;;;;;1.88;1.02;;;18.50;99.90;;;;;;4239670;27;20030;-61
2021/08/07 03:58:30;;;;;;;1.13;1.00;;;19.00;99.90;;;;;;4239677;27;20452;-61
2021/08/07 04:00:33;;;;;;;1.38;1.13;;;19.50;99.90;;;;;;4236317;27;20064;-61
2021/08/07 04:02:34;;;;;;;4.95;1.38;;;19.90;99.90;;;;;;4239241;27;20035;-61
2021/08/07 04:04:36;;;;;;;3.20;1.50;;;20.30;99.90;;;;;;4239429;27;20456;-61
2021/08/07 04:06:38;;;;;;;4.60;3.10;;;20.70;99.90;;;;;;4239568;27;20031;-61
2021/08/07 04:08:39;;;;;;;3.72;2.20;;;20.90;99.90;;;;;;4239629;27;20107;-61
2021/08/07 04:10:40;;;;;;;5.60;2.30;;;21.10;99.90;;;;;;4239697;27;20027;-61
2021/08/07 04:12:42;;;;;;;3.30;1.73;;;21.50;99.90;;;;;;4239052;27;20043;-61
2021/08/07 04:14:43;;;;;;;2.28;1.80;;;22.00;99.90;;;;;;4239403;27;20069;-62
2021/08/07 04:16:44;;;;;;;0.90;0.77;;;22.40;99.30;;;;;;4235708;27;20792;-62
2021/08/07 04:18:45;;;;;;;2.55;1.10;;;22.70;98.70;;;;;;4221960;28;20039;-61
2021/08/07 04:20:46;;;;;;;1.30;1.20;;;22.90;98.10;;;;;;4223646;28;20173;-62
2021/08/07 04:22:47;;;;;;;3.20;0.88;;;23.20;97.70;;;;;;4222149;28;20431;-62
2021/08/07 04:24:49;;;;;;;2.10;0.90;;;23.50;96.90;;;;;;4222915;28;20028;-62
2021/08/07 04:26:50;;;;;;;1.30;0.90;;;23.70;96.40;;;;;;4222704;28;20035;-62
2021/08/07 04:28:51;;;;;;;1.17;0.80;;;24.10;95.80;;;;;;4222600;28;20031;-62
2021/08/07 04:30:52;;;;;;;1.73;0.75;;;24.50;95.20;;;;;;4221584;28;20055;-62
2021/08/07 04:32:54;;;;;;;4.53;0.93;;;24.70;94.40;;;;;;4222448;28;20055;-62
2021/08/07 04:34:55;;;;;;;1.48;0.85;;;24.90;93.90;;;;;;4222103;28;20027;-62
2021/08/07 04:36:57;;;;;;;2.17;1.17;;;25.10;93.30;;;;;;4222491;28;20093;-62
2021/08/07 04:38:58;;;;;;;3.47;0.63;;;25.10;93.00;;;;;;4226049;27;20035;-62
2021/08/07 04:40:59;;;;;;;3.30;0.60;;;25.20;92.50;;;;;;4239380;27;20034;-62
2021/08/07 04:43:00;;;;;;;1.27;0.77;;;25.30;92.30;;;;;;4239125;27;20088;-61
2021/08/07 04:45:01;;;;;;;1.35;1.05;;;25.00;92.00;;;;;;4238854;27;20080;-61
2021/08/07 04:47:03;;;;;;;1.25;1.15;;;25.10;91.90;;;;;;4239142;27;20084;-62
2021/08/07 04:49:04;;;;;;;2.00;0.70;;;25.50;91.60;;;;;;4237959;27;20564;-62
2021/08/07 04:51:05;;;;;;;3.65;0.63;;;25.80;91.00;;;;;;4239232;28;20479;-62
2021/08/07 04:53:07;;;;;;;6.95;1.00;;;25.80;90.40;;;;;;4238541;27;20096;-62
2021/08/07 04:55:08;;;;;;;2.72;0.80;;;25.10;90.40;;;;;;4239158;27;20112;-62
2021/08/07 04:57:09;;;;;;;5.55;1.00;;;24.70;90.60;;;;;;4231419;28;20512;-61
2021/08/07 04:59:10;;;;;;;1.38;0.60;;;24.50;90.90;;;;;;4222217;28;20084;-62
2021/08/07 05:01:11;;;;;;;1.10;1.00;;;24.10;90.90;;;;;;4221630;28;21041;-62
2021/08/07 05:03:12;;;;;;;1.15;0.68;;;23.50;91.40;;;;;;4221974;28;20052;-62
2021/08/07 05:05:15;;;;;;;1.95;0.80;;;23.20;91.70;;;;;;4221798;28;20028;-62
2021/08/07 05:07:16;;;;;;;1.33;0.73;;;23.10;91.80;;;;;;4229700;28;20108;-62
2021/08/07 05:09:17;;;;;;;1.27;0.85;;;23.10;91.80;;;;;;4238842;28;20835;-62
2021/08/07 05:11:18;;;;;;;2.83;1.25;;;23.30;91.70;;;;;;4238982;27;20432;-62
2021/08/07 05:13:20;;;;;;;1.30;0.90;;;23.70;91.30;;;;;;4241594;27;20532;-62
2021/08/07 05:15:21;;;;;;;1.85;0.95;;;24.40;90.80;;;;;;4241609;27;20096;-63
2021/08/07 05:17:24;;;;;;;2.40;0.57;;;24.80;90.30;;;;;;4242144;27;20094;-62
2021/08/07 05:19:25;;;;;;;1.40;0.80;;;24.90;89.70;;;;;;4241970;27;20039;-62
2021/08/07 05:21:26;;;;;;;2.60;0.85;;;25.30;89.10;;;;;;4241708;27;20154;-62
2021/08/07 05:23:27;;;;;;;1.58;0.82;;;25.20;88.50;;;;;;4241772;27;20023;-62
2021/08/07 05:25:28;;;;;;;0.73;0.52;;;25.60;88.40;;;;;;4242361;27;20039;-62
2021/08/07 05:27:30;;;;;;;1.00;0.77;;;26.00;87.40;;;;;;4241982;27;20730;-62
2021/08/07 05:29:31;;;;;;;1.20;0.80;;;26.50;86.20;;;;;;4238800;27;20061;-63
2021/08/07 05:31:32;;;;;;;1.25;0.80;;;26.80;84.80;;;;;;4240808;27;20116;-62
2021/08/07 05:33:33;;;;;;;2.05;0.90;;;26.50;84.50;;;;;;4242512;27;20421;-62
2021/08/07 05:35:34;;;;;;;1.30;0.90;;;26.40;84.30;;;;;;4240770;27;20536;-62
2021/08/07 05:37:42;;;;;;;1.70;0.70;;;26.80;84.00;;;;;;4241945;27;20425;-61
2021/08/07 05:39:43;;;;;;;2.15;0.60;;;27.20;82.50;;;;;;4241664;27;20088;-61
2021/08/07 05:41:44;;;;;;;1.08;0.90;;;27.30;82.00;;;;;;4239464;27;20027;-62
2021/08/07 05:43:46;;;;;;;2.28;0.80;;;27.10;81.80;;;;;;4241298;27;20023;-62
2021/08/07 05:45:47;;;;;;;1.50;0.90;;;27.50;81.20;;;;;;4241284;27;20027;-62
2021/08/07 05:47:48;;;;;;;2.00;1.13;;;28.00;80.60;;;;;;4241775;27;20031;-62
2021/08/07 05:49:49;;;;;;;2.30;1.20;;;28.50;79.20;;;;;;4240551;27;20072;-62
2021/08/07 05:51:50;;;;;;;2.33;1.50;;;28.80;78.00;;;;;;4241360;27;20575;-62
2021/08/07 05:53:54;;;;;;;3.35;1.20;;;29.20;77.30;;;;;;4238057;27;20084;-62
2021/08/07 05:55:55;;;;;;;5.50;3.70;;;29.30;76.20;;;;;;4239650;27;20043;-63
2021/08/07 05:57:58;;;;;;;3.35;1.10;;;29.40;75.20;;;;;;4240634;27;20421;-61
2021/08/07 05:59:59;;;;;;;1.23;1.13;;;29.40;74.90;;;;;;4241560;27;20536;-62
2021/08/07 06:02:02;;;;;;;1.42;0.68;;;29.30;74.30;;;;;;4240215;27;20023;-62
2021/08/07 06:04:03;;;;;;;5.03;0.98;;;29.30;74.10;;;;;;4236433;27;20076;-62
2021/08/07 06:06:04;;;;;;;1.08;0.57;;;29.50;73.70;;;;;;4223445;28;20701;-62
2021/08/07 06:08:06;;;;;;;2.03;0.60;;;29.50;73.00;;;;;;4224731;28;20031;-62
2021/08/07 06:10:08;;;;;;;1.10;0.73;;;29.60;72.30;;;;;;4223814;28;20024;-62
2021/08/07 06:12:09;;;;;;;2.95;0.80;;;29.50;71.90;;;;;;4224027;28;20096;-61
2021/08/07 06:14:10;;;;;;;3.53;0.70;;;29.80;71.70;;;;;;4223916;28;20035;-61
2021/08/07 06:16:11;;;;;;;1.55;0.70;;;30.30;70.90;;;;;;4223956;28;20081;-61
2021/08/07 06:18:12;;;;;;;0.63;0.60;;;30.40;70.20;;;;;;4226362;27;20127;-61
2021/08/07 06:20:14;;;;;;;1.05;0.70;;;30.70;69.70;;;;;;4240997;27;20043;-62
2021/08/07 06:22:15;;;;;;;0.65;0.63;;;31.00;69.10;;;;;;4240901;27;20019;-62
2021/08/07 06:24:16;;;;;;;2.78;0.68;;;30.90;68.70;;;;;;4239999;27;20035;-61
2021/08/07 06:26:17;;;;;;;2.15;0.68;;;31.00;68.30;;;;;;4241462;27;20035;-61
2021/08/07 06:28:19;;;;;;;4.88;0.73;;;30.60;68.80;;;;;;4240281;27;20441;-62
2021/08/07 06:30:21;;;;;;;6.43;0.88;;;29.20;70.20;;;;;;4240549;27;20096;-61
2021/08/07 06:32:22;;;;;;;4.03;0.73;;;28.50;72.20;;;;;;4239430;27;20047;-61
2021/08/07 06:34:23;;;;;;;2.78;1.05;;;28.40;73.00;;;;;;4241058;27;20031;-61
2021/08/07 06:36:24;;;;;;;2.42;0.93;;;27.90;73.50;;;;;;4240196;27;20437;-62
2021/08/07 06:38:26;;;;;;;1.55;0.68;;;27.20;74.50;;;;;;4239929;27;20088;-62
2021/08/07 06:40:27;;;;;;;1.52;0.68;;;27.10;75.30;;;;;;4240399;27;20039;-62
2021/08/07 06:42:28;;;;;;;1.45;0.90;;;27.50;75.00;;;;;;4239892;27;20520;-64
2021/08/07 06:44:29;;;;;;;1.13;0.60;;;28.20;74.20;;;;;;4239721;27;20479;-64
2021/08/07 06:46:30;;;;;;;4.82;1.02;;;28.60;73.60;;;;;;4228656;27;20047;-62
2021/08/07 06:48:32;;;;;;;2.15;0.52;;;28.90;73.10;;;;;;4223395;28;20118;-63
2021/08/07 06:50:33;;;;;;;1.35;0.70;;;29.50;72.50;;;;;;4223209;28;20089;-61
2021/08/07 06:52:34;;;;;;;1.55;0.70;;;29.60;71.60;;;;;;4223577;27;20035;-63
2021/08/07 06:54:36;;;;;;;2.92;0.63;;;29.70;71.10;;;;;;4223222;28;20128;-63
2021/08/07 06:56:37;;;;;;;3.13;0.90;;;29.60;71.30;;;;;;4222625;28;20479;-63
2021/08/07 06:58:38;;;;;;;0.60;0.60;;;29.70;71.60;;;;;;4222511;28;20036;-63
2021/08/07 07:00:39;;;;;;;3.42;0.70;;;29.60;71.70;;;;;;4223594;28;20467;-61
2021/08/07 07:02:40;;;;;;;1.15;0.70;;;29.40;72.40;;;;;;4238720;27;20543;-65
2021/08/07 07:04:42;;;;;;;3.08;0.50;;;29.30;71.90;;;;;;4242681;27;20108;-62
2021/08/07 07:06:43;;;;;;;1.42;0.90;;;29.30;71.90;;;;;;4231351;27;20084;-64
2021/08/07 07:08:44;;;;;;;8.45;1.65;;;29.30;72.10;;;;;;4240260;27;20027;-63
2021/08/07 07:10:46;;;;;;;6.40;1.20;;;29.00;72.10;;;;;;4239556;27;20023;-61
2021/08/07 07:12:47;;;;;;;10.57;1.23;;;29.00;72.10;;;;;;4239717;27;20064;-66
2021/08/07 07:14:48;;;;;;;7.75;1.20;;;29.20;71.90;;;;;;4240120;27;20372;-65
2021/08/07 07:16:50;;;;;;;9.35;2.03;;;29.40;71.20;;;;;;4239622;27;20074;-64
2021/08/07 07:18:51;;;;;;;3.65;1.00;;;29.10;70.90;;;;;;4230655;27;20028;-64
2021/08/07 07:20:52;;;;;;;3.03;0.90;;;28.60;71.20;;;;;;4222396;28;20031;-65
2021/08/07 07:22:53;;;;;;;2.60;1.30;;;28.30;72.30;;;;;;4223005;28;20235;-63
2021/08/07 07:24:55;;;;;;;3.08;0.80;;;28.30;72.60;;;;;;4222827;28;20139;-62
2021/08/07 07:26:56;;;;;;;2.08;0.90;;;28.40;72.90;;;;;;4223206;28;20361;-62
2021/08/07 07:28:58;;;;;;;4.22;0.90;;;28.40;73.10;;;;;;4222446;28;20092;-66
2021/08/07 07:30:59;;;;;;;1.90;1.20;;;28.80;73.30;;;;;;4220396;28;20675;-62
2021/08/07 07:33:00;;;;;;;4.75;2.95;;;29.00;72.40;;;;;;4222043;28;20092;-62
2021/08/07 07:35:02;;;;;;;0.93;0.50;;;28.80;72.50;;;;;;4222996;27;20620;-59
2021/08/07 07:37:06;;;;;;;3.13;1.05;;;28.60;72.40;;;;;;4221977;28;20048;-62
2021/08/07 07:39:07;;;;;;;1.13;0.50;;;28.10;72.60;;;;;;4222158;28;20089;-64
2021/08/07 07:41:09;;;;;;;0.85;0.65;;;27.80;73.10;;;;;;4222535;28;20475;-62
2021/08/07 07:43:10;;;;;;;4.32;1.00;;;27.90;73.60;;;;;;4222129;28;20032;-60
2021/08/07 07:45:12;;;;;;;1.77;0.75;;;27.70;73.00;;;;;;4222483;28;20084;-61
2021/08/07 07:47:13;;;;;;;1.13;0.95;;;27.30;73.30;;;;;;4222660;28;20112;-60
2021/08/07 07:49:14;;;;;;;1.38;1.00;;;27.10;73.20;;;;;;4222044;28;20027;-59
2021/08/07 07:51:16;;;;;;;3.58;1.00;;;26.40;74.20;;;;;;4222483;28;20479;-59
2021/08/07 07:53:17;;;;;;;2.63;0.85;;;26.10;74.90;;;;;;4223169;27;20089;-60
2021/08/07 07:55:18;;;;;;;5.40;1.10;;;26.20;75.10;;;;;;4222392;28;20023;-62
2021/08/07 07:57:20;;;;;;;1.88;0.80;;;26.40;75.00;;;;;;4222265;28;20039;-62
2021/08/07 07:59:21;;;;;;;1.55;0.95;;;26.80;75.00;;;;;;4221257;28;20085;-59
2021/08/07 08:01:22;;;;;;;2.05;0.65;;;27.00;74.00;;;;;;4222263;28;20044;-60
2021/08/07 08:03:24;;;;;;;4.18;1.13;;;27.00;74.00;;;;;;4217074;28;20450;-60
2021/08/07 08:05:25;;;;;;;2.90;0.77;;;27.10;73.90;;;;;;4205363;28;20349;-62
2021/08/07 08:07:26;;;;;;;0.88;0.88;;;27.10;74.20;;;;;;4209624;27;20807;-59
2021/08/07 08:09:28;;;;;;;0.82;0.82;;;27.30;74.10;;;;;;4222047;28;20647;-60
2021/08/07 08:11:29;;;;;;;2.25;0.80;;;27.30;73.80;;;;;;4222893;27;20087;-62
2021/08/07 08:13:30;;;;;;;0.90;0.70;;;27.50;74.00;;;;;;4221970;28;20043;-60
2021/08/07 08:15:31;;;;;;;1.33;0.95;;;27.60;73.90;;;;;;4207420;28;20106;-59
2021/08/07 08:17:32;;;;;;;1.40;1.30;;;27.70;73.70;;;;;;4205200;28;20430;-59
2021/08/07 08:19:33;;;;;;;1.33;0.80;;;27.80;73.00;;;;;;4204833;28;20028;-60
2021/08/07 08:21:35;;;;;;;7.63;1.58;;;28.10;72.50;;;;;;4205661;28;20571;-62
2021/08/07 08:23:36;;;;;;;4.82;1.35;;;28.40;72.00;;;;;;4204952;28;20464;-60
2021/08/07 08:25:38;;;;;;;6.70;1.20;;;28.50;71.60;;;;;;4214226;27;20080;-60
2021/08/07 08:27:40;;;;;;;1.95;1.13;;;28.50;71.30;;;;;;4222553;28;20035;-61
2021/08/07 08:29:41;;;;;;;2.20;1.30;;;28.50;71.20;;;;;;4231958;27;20491;-60
2021/08/07 08:31:42;;;;;;;4.30;1.00;;;28.60;71.00;;;;;;4236505;27;20042;-64
2021/08/07 08:33:43;;;;;;;1.95;0.93;;;28.20;71.40;;;;;;4232463;27;20023;-59
2021/08/07 08:35:46;;;;;;;1.23;1.05;;;28.00;71.90;;;;;;4198927;27;20841;-62
2021/08/07 08:37:51;;;;;;;0.70;0.70;;;28.30;71.60;;;;;;4227045;27;20081;-63
2021/08/07 08:39:52;;;;;;;0.95;0.60;;;27.90;71.80;;;;;;4222259;27;20376;-61
2021/08/07 08:41:53;;;;;;;0.85;0.80;;;27.70;72.10;;;;;;4219594;28;20036;-62
2021/08/07 08:44:01;;;;;;;0.90;0.90;;;27.70;71.90;;;;;;4224185;27;20084;-61
2021/08/07 08:46:03;;;;;;;2.17;1.20;;;27.70;71.80;;;;;;4221215;28;20088;-62
2021/08/07 08:48:05;;;;;;;1.75;1.63;;;27.40;72.50;;;;;;4226271;27;20023;-65
2021/08/07 08:50:07;;;;;;;1.10;1.10;;;27.30;72.90;;;;;;4219328;27;20101;-61
2021/08/07 08:52:08;;;;;;;2.13;0.90;;;27.50;72.70;;;;;;4223385;28;20019;-60
2021/08/07 08:54:09;;;;;;;0.82;0.82;;;27.50;73.10;;;;;;4213705;28;20044;-61
2021/08/07 08:56:11;;;;;;;1.00;0.90;;;27.60;72.50;;;;;;4221393;28;20077;-60
2021/08/07 08:58:16;;;;;;;1.40;0.70;;;27.70;71.70;;;;;;4219954;28;20035;-60
2021/08/07 09:00:17;;;;;;;2.85;0.80;;;27.80;71.50;;;;;;4228490;28;20108;-61
2021/08/07 09:02:18;;;;;;;2.47;1.10;;;27.70;71.40;;;;;;4219181;28;20112;-61
2021/08/07 09:04:19;;;;;;;1.30;1.00;;;27.60;71.60;;;;;;4222077;28;20070;-61
2021/08/07 09:06:21;;;;;;;2.83;1.05;;;27.30;71.60;;;;;;4220393;28;20039;-59
2021/08/07 09:08:22;;;;;;;4.30;0.90;;;27.00;71.90;;;;;;4219949;28;20035;-60
2021/08/07 09:10:24;;;;;;;2.90;1.10;;;26.60;72.20;;;;;;4221633;28;20044;-61
2021/08/07 09:12:43;;;;;;;6.05;1.30;;;26.20;72.80;;;;;;4227672;28;20044;-60
2021/08/07 09:14:47;;;;;;;2.22;0.80;;;26.40;73.10;;;;;;4214308;28;20035;-60
2021/08/07 09:17:00;;;;;;;2.40;1.05;;;26.70;72.80;;;;;;4224507;28;20455;-61
2021/08/07 09:19:02;;;;;;;1.10;0.63;;;26.80;72.20;;;;;;4219422;28;20031;-61
2021/08/07 09:21:13;;;;;;;3.28;1.30;;;27.00;72.70;;;;;;4220969;28;20061;-59
2021/08/07 09:23:14;;;;;;;2.78;1.27;;;26.70;71.50;;;;;;4218517;28;20858;-67
2021/08/07 09:25:16;;;;;;;1.35;0.90;;;26.50;72.60;;;;;;4215375;28;20093;-62
2021/08/07 09:27:30;;;;;;;1.05;1.00;;;26.50;72.90;;;;;;4220528;28;20069;-61
2021/08/07 09:29:36;;;;;;;5.28;1.70;;;26.50;72.60;;;;;;4219506;28;20883;-60
2021/08/07 09:31:37;;;;;;;1.05;0.98;;;26.50;73.20;;;;;;4226779;28;20031;-61
2021/08/07 09:33:39;;;;;;;0.65;0.60;;;26.80;72.80;;;;;;4228138;27;20916;-61
2021/08/07 09:35:43;;;;;;;1.60;0.82;;;26.90;72.70;;;;;;4212574;28;20085;-62
2021/08/07 09:37:44;;;;;;;1.98;1.25;;;27.00;72.60;;;;;;4220055;28;20027;-61
2021/08/07 09:39:46;;;;;;;0.95;0.60;;;27.20;72.60;;;;;;4222417;28;20503;-62
2021/08/07 09:41:59;;;;;;;2.05;0.57;;;27.50;72.30;;;;;;4216319;28;20039;-62
2021/08/07 09:44:00;;;;;;;1.20;1.10;;;27.60;71.40;;;;;;4238088;28;20023;-62
2021/08/07 09:46:08;;;;;;;2.80;1.50;;;27.50;71.80;;;;;;4235756;28;20437;-62
2021/08/07 09:48:12;;;;;;;3.20;1.77;;;27.50;71.60;;;;;;4221207;28;20456;-61
2021/08/07 09:50:22;;;;;;;3.92;2.20;;;27.60;71.90;;;;;;4234285;28;20031;-62
2021/08/07 09:52:35;;;;;;;1.73;1.33;;;27.50;72.10;;;;;;4238014;27;20147;-61
2021/08/07 09:54:44;;;;;;;1.00;0.90;;;27.50;71.40;;;;;;4237669;27;20058;-62
2021/08/07 09:56:54;;;;;;;7.15;4.00;;;27.60;71.50;;;;;;4237340;28;20355;-61
2021/08/07 09:59:06;;;;;;;0.90;0.90;;;27.70;71.90;;;;;;4239878;27;20023;-61
2021/08/07 10:01:24;;;;;;;1.73;0.85;;;27.90;71.60;;;;;;4239284;27;20031;-61
2021/08/07 10:03:29;;;;;;;1.40;0.90;;;27.80;71.80;;;;;;4225913;27;20473;-62
2021/08/07 10:05:30;;;;;;;2.03;1.55;;;27.80;72.00;;;;;;4224480;28;20032;-61
2021/08/07 10:07:32;;;;;;;31.95;16.23;;;27.90;72.10;;;;;;4224327;28;20084;-62
2021/08/07 10:09:34;;;;;;;27.60;14.50;;;27.90;71.70;;;;;;4225825;27;20076;-62
2021/08/07 10:11:35;;;;;;;9.88;4.57;;;27.80;71.70;;;;;;4238771;27;20088;-62
2021/08/07 10:13:36;;;;;;;7.85;1.88;;;27.60;71.60;;;;;;4240317;27;20043;-62
2021/08/07 10:15:40;;;;;;;0.82;0.65;;;27.50;72.30;;;;;;4238836;27;20092;-62
2021/08/07 10:17:42;;;;;;;5.82;1.52;;;27.10;72.30;;;;;;4240808;27;20051;-63
2021/08/07 10:19:45;;;;;;;2.22;1.00;;;26.70;73.20;;;;;;4238351;27;20051;-62
2021/08/07 10:21:49;;;;;;;1.67;0.88;;;26.10;72.90;;;;;;4240636;27;20436;-62
2021/08/07 10:23:53;;;;;;;1.05;0.50;;;25.80;73.70;;;;;;4240090;27;20047;-63
2021/08/07 10:25:54;;;;;;;3.00;1.15;;;25.60;74.10;;;;;;4241271;27;20092;-63
2021/08/07 10:27:58;;;;;;;3.63;1.33;;;25.30;74.50;;;;;;4241376;27;20031;-62
2021/08/07 10:30:02;;;;;;;2.30;1.08;;;25.40;74.90;;;;;;4240799;27;20076;-63
2021/08/07 10:32:05;;;;;;;9.45;1.83;;;25.50;74.90;;;;;;4241040;27;20019;-62
2021/08/07 10:34:10;;;;;;;3.40;1.20;;;25.40;74.80;;;;;;4238918;27;20031;-63
2021/08/07 10:36:13;;;;;;;6.15;0.73;;;25.30;75.00;;;;;;4240809;27;20077;-62